createdAt,value
2022-10-16T00:09:05.696Z,1014.41
2022-10-16T00:20:08.285Z,1014.41
2022-10-16T00:31:11.093Z,1014.41
2022-10-16T00:42:13.566Z,1014.41
2022-10-16T00:53:14.645Z,1014.41
2022-10-16T01:04:15.160Z,1014.41
2022-10-16T01:15:14.906Z,1015.45
2022-10-16T01:26:16.220Z,1014.41
2022-10-16T01:37:17.999Z,1014.41
2022-10-16T01:48:20.482Z,1014.41
2022-10-16T01:58:59.924Z,1014.41
2022-10-16T02:09:39.284Z,1014.41
2022-10-16T02:20:40.305Z,1014.41
2022-10-16T02:31:37.004Z,1014.41
2022-10-16T02:42:38.206Z,1014.41
2022-10-16T02:53:22.184Z,1014.41
2022-10-16T03:04:24.481Z,1015.45
2022-10-16T03:15:27.035Z,1015.45
2022-10-16T03:26:29.733Z,1014.41
2022-10-16T03:37:32.178Z,1015.45
2022-10-16T03:48:34.286Z,1015.45
2022-10-16T03:59:38.034Z,1015.45
2022-10-16T04:10:42.074Z,1015.45
2022-10-16T04:21:45.394Z,1015.45
2022-10-16T04:32:46.912Z,1015.45
2022-10-16T04:43:49.802Z,1015.45
2022-10-16T04:54:51.658Z,1015.45
2022-10-16T05:05:51.686Z,1015.45
2022-10-16T05:16:54.978Z,1015.45
2022-10-16T05:27:36.283Z,1015.45
2022-10-16T05:38:39.220Z,1015.45
2022-10-16T05:49:20.729Z,1015.45
2022-10-16T06:00:20.380Z,1015.45
2022-10-16T06:11:21.346Z,1016.50
2022-10-16T06:22:22.537Z,1016.50
2022-10-16T06:33:22.308Z,1016.50
2022-10-16T06:44:19.095Z,1016.50
2022-10-16T06:55:21.165Z,1016.50
2022-10-16T07:06:18.882Z,1016.50
2022-10-16T07:17:16.969Z,1016.50
2022-10-16T07:28:14.669Z,1016.50
2022-10-16T07:39:21.131Z,1016.50
2022-10-16T07:50:21.739Z,1016.50
2022-10-16T08:01:15.377Z,1016.50
2022-10-16T08:12:13.954Z,1016.50
2022-10-16T08:23:17.062Z,1016.50
2022-10-16T08:34:19.743Z,1016.50
2022-10-16T08:45:22.797Z,1016.50
2022-10-16T08:56:25.633Z,1016.50
2022-10-16T09:07:24.982Z,1016.50
2022-10-16T09:18:30.072Z,1016.50
2022-10-16T09:29:29.012Z,1016.50
2022-10-16T09:40:26.079Z,1016.50
2022-10-16T09:51:02.543Z,1016.50
2022-10-16T10:01:51.821Z,1016.50
2022-10-16T10:12:36.795Z,1016.50
2022-10-16T10:23:38.280Z,1016.50
2022-10-16T10:34:14.691Z,1016.50
2022-10-16T10:44:49.410Z,1016.50
2022-10-16T10:55:51.443Z,1016.50
2022-10-16T11:06:45.446Z,1016.50
2022-10-16T11:17:46.486Z,1016.50
2022-10-16T11:28:47.035Z,1016.50
2022-10-16T11:39:44.473Z,1016.50
2022-10-16T11:50:44.763Z,1016.50
2022-10-16T12:01:36.577Z,1016.50
2022-10-16T12:12:36.950Z,1016.50
2022-10-16T12:23:34.795Z,1016.50
2022-10-16T12:34:32.177Z,1016.50
2022-10-16T12:45:31.121Z,1016.50
2022-10-16T12:56:28.803Z,1016.50
2022-10-16T13:07:25.709Z,1016.50
2022-10-16T13:18:23.365Z,1016.50
2022-10-16T13:29:10.323Z,1016.50
2022-10-16T13:39:52.169Z,1016.50
2022-10-16T13:50:47.125Z,1017.55
2022-10-16T14:01:34.384Z,1017.55
2022-10-16T14:12:24.062Z,1017.55
2022-10-16T14:23:17.919Z,1017.55
2022-10-16T14:33:52.348Z,1017.55
2022-10-16T14:44:46.737Z,1017.55
2022-10-16T14:55:43.297Z,1017.55
2022-10-16T15:06:41.753Z,1017.55
2022-10-16T15:17:39.424Z,1017.55
2022-10-16T15:28:28.913Z,1017.55
2022-10-16T15:39:26.933Z,1018.59
2022-10-16T15:50:24.092Z,1018.59
2022-10-16T16:01:17.308Z,1018.59
2022-10-16T16:12:07.259Z,1018.59
2022-10-16T16:23:03.095Z,1018.59
2022-10-16T16:33:59.150Z,1018.59
2022-10-16T16:44:56.690Z,1019.64
2022-10-16T16:55:50.316Z,1019.64
2022-10-16T17:06:46.437Z,1019.64
2022-10-16T17:17:27.144Z,1020.68
2022-10-16T17:28:26.876Z,1020.68
2022-10-16T17:39:02.980Z,1020.68
2022-10-16T17:49:57.282Z,1020.68
2022-10-16T18:11:31.040Z,1021.73
2022-10-16T18:22:16.622Z,1021.73
2022-10-16T18:32:52.537Z,1021.73
2022-10-16T18:43:44.373Z,1021.73
2022-10-16T18:54:31.705Z,1021.73
2022-10-16T19:05:28.531Z,1021.73
2022-10-16T19:16:21.650Z,1021.73
2022-10-16T19:27:12.559Z,1021.73
2022-10-16T19:38:00.992Z,1021.73
2022-10-16T19:48:56.617Z,1021.73
2022-10-16T19:59:45.642Z,1021.73
2022-10-16T20:10:36.483Z,1022.77
2022-10-16T20:21:23.323Z,1022.77
2022-10-16T20:32:22.744Z,1022.77
2022-10-16T20:43:16.623Z,1022.77
2022-10-16T20:54:15.605Z,1022.77
2022-10-16T21:05:11.300Z,1022.77
2022-10-16T21:16:10.073Z,1022.77
2022-10-16T21:27:11.086Z,1022.77
2022-10-16T21:38:10.883Z,1022.77
2022-10-16T21:49:08.876Z,1022.77
2022-10-16T22:00:09.469Z,1022.77
2022-10-16T22:11:05.688Z,1022.77
2022-10-16T22:22:07.264Z,1022.77
2022-10-16T22:33:08.380Z,1022.77
2022-10-16T22:44:05.412Z,1022.77
2022-10-16T22:55:07.066Z,1022.77
2022-10-16T23:06:03.231Z,1022.77
2022-10-16T23:17:04.255Z,1022.77
2022-10-16T23:28:02.639Z,1022.77
2022-10-16T23:39:04.805Z,1023.82
2022-10-16T23:50:04.150Z,1022.77
